sensor_id;sensor_type;location;lat;lon;timestamp;temperature;humidity
19152;DHT22;9708;53.114;9.388;2023-02-15T00:01:25;3.90;99.90
19152;DHT22;9708;53.114;9.388;2023-02-15T00:03:53;3.90;99.90
19152;DHT22;9708;53.114;9.388;2023-02-15T00:06:20;3.90;99.90
19152;DHT22;9708;53.114;9.388;2023-02-15T00:08:47;3.80;99.90
19152;DHT22;9708;53.114;9.388;2023-02-15T00:11:15;3.70;99.90
19152;DHT22;9708;53.114;9.388;2023-02-15T00:14:03;3.70;99.90
19152;DHT22;9708;53.114;9.388;2023-02-15T00:16:29;3.70;99.90
19152;DHT22;9708;53.114;9.388;2023-02-15T00:18:58;3.80;99.90
19152;DHT22;9708;53.114;9.388;2023-02-15T00:21:27;3.90;99.90
19152;DHT22;9708;53.114;9.388;2023-02-15T00:23:54;3.80;99.90
19152;DHT22;9708;53.114;9.388;2023-02-15T00:26:21;3.80;99.90
19152;DHT22;9708;53.114;9.388;2023-02-15T00:28:48;3.70;99.90
19152;DHT22;9708;53.114;9.388;2023-02-15T00:31:15;3.70;99.90
19152;DHT22;9708;53.114;9.388;2023-02-15T00:33:42;3.60;99.90
19152;DHT22;9708;53.114;9.388;2023-02-15T00:36:10;3.70;99.90
19152;DHT22;9708;53.114;9.388;2023-02-15T00:38:37;3.70;99.90
19152;DHT22;9708;53.114;9.388;2023-02-15T00:41:06;3.50;99.90
19152;DHT22;9708;53.114;9.388;2023-02-15T00:43:34;3.50;99.90
19152;DHT22;9708;53.114;9.388;2023-02-15T00:46:01;3.50;99.90
19152;DHT22;9708;53.114;9.388;2023-02-15T00:48:29;3.60;99.90
19152;DHT22;9708;53.114;9.388;2023-02-15T00:50:57;3.60;99.90
19152;DHT22;9708;53.114;9.388;2023-02-15T00:53:26;3.60;99.90
19152;DHT22;9708;53.114;9.388;2023-02-15T00:55:53;3.70;99.90
19152;DHT22;9708;53.114;9.388;2023-02-15T00:58:20;3.70;99.90
19152;DHT22;9708;53.114;9.388;2023-02-15T01:00:47;3.60;99.90
19152;DHT22;9708;53.114;9.388;2023-02-15T01:03:16;3.50;99.90
19152;DHT22;9708;53.114;9.388;2023-02-15T01:05:43;3.50;99.90
19152;DHT22;9708;53.114;9.388;2023-02-15T01:08:09;3.50;99.90
19152;DHT22;9708;53.114;9.388;2023-02-15T01:10:38;3.60;99.90
19152;DHT22;9708;53.114;9.388;2023-02-15T01:13:05;3.50;99.90
19152;DHT22;9708;53.114;9.388;2023-02-15T01:15:34;3.40;99.90
19152;DHT22;9708;53.114;9.388;2023-02-15T01:18:01;3.50;99.90
19152;DHT22;9708;53.114;9.388;2023-02-15T01:20:28;3.40;99.90
19152;DHT22;9708;53.114;9.388;2023-02-15T01:22:56;3.40;99.90
19152;DHT22;9708;53.114;9.388;2023-02-15T01:25:24;3.40;99.90
19152;DHT22;9708;53.114;9.388;2023-02-15T01:27:52;3.50;99.90
19152;DHT22;9708;53.114;9.388;2023-02-15T01:30:19;3.40;99.90
19152;DHT22;9708;53.114;9.388;2023-02-15T01:32:45;3.30;99.90
19152;DHT22;9708;53.114;9.388;2023-02-15T01:35:12;3.40;99.90
19152;DHT22;9708;53.114;9.388;2023-02-15T01:37:39;3.30;99.90
19152;DHT22;9708;53.114;9.388;2023-02-15T01:40:11;3.40;99.90
19152;DHT22;9708;53.114;9.388;2023-02-15T01:42:38;3.40;99.90
19152;DHT22;9708;53.114;9.388;2023-02-15T01:45:21;3.40;99.90
19152;DHT22;9708;53.114;9.388;2023-02-15T01:47:56;3.40;99.90
19152;DHT22;9708;53.114;9.388;2023-02-15T01:50:27;3.40;99.90
19152;DHT22;9708;53.114;9.388;2023-02-15T01:53:02;3.40;99.90
19152;DHT22;9708;53.114;9.388;2023-02-15T01:55:33;3.30;99.90
19152;DHT22;9708;53.114;9.388;2023-02-15T01:58:02;3.40;99.90
19152;DHT22;9708;53.114;9.388;2023-02-15T02:00:31;3.30;99.90
19152;DHT22;9708;53.114;9.388;2023-02-15T02:02:59;3.40;99.90
19152;DHT22;9708;53.114;9.388;2023-02-15T02:05:26;3.40;99.90
19152;DHT22;9708;53.114;9.388;2023-02-15T02:07:57;3.40;99.90
19152;DHT22;9708;53.114;9.388;2023-02-15T02:10:25;3.30;99.90
19152;DHT22;9708;53.114;9.388;2023-02-15T02:12:54;3.40;99.90
19152;DHT22;9708;53.114;9.388;2023-02-15T02:15:26;3.30;99.90
19152;DHT22;9708;53.114;9.388;2023-02-15T02:18:03;3.30;99.90
19152;DHT22;9708;53.114;9.388;2023-02-15T02:20:55;3.30;99.90
19152;DHT22;9708;53.114;9.388;2023-02-15T02:23:33;3.20;99.90
19152;DHT22;9708;53.114;9.388;2023-02-15T02:26:29;3.30;99.90
19152;DHT22;9708;53.114;9.388;2023-02-15T02:35:25;3.00;99.90
19152;DHT22;9708;53.114;9.388;2023-02-15T02:38:02;3.10;99.90
19152;DHT22;9708;53.114;9.388;2023-02-15T02:40:37;3.00;99.90
19152;DHT22;9708;53.114;9.388;2023-02-15T02:43:12;2.90;99.90
19152;DHT22;9708;53.114;9.388;2023-02-15T02:45:47;3.00;99.90
19152;DHT22;9708;53.114;9.388;2023-02-15T02:48:20;2.90;99.90
19152;DHT22;9708;53.114;9.388;2023-02-15T02:50:49;3.00;99.90
19152;DHT22;9708;53.114;9.388;2023-02-15T02:53:16;3.00;99.90
19152;DHT22;9708;53.114;9.388;2023-02-15T02:55:46;2.90;99.90
19152;DHT22;9708;53.114;9.388;2023-02-15T02:58:16;3.00;99.90
19152;DHT22;9708;53.114;9.388;2023-02-15T03:00:48;2.90;99.90
19152;DHT22;9708;53.114;9.388;2023-02-15T03:03:20;3.00;99.90
19152;DHT22;9708;53.114;9.388;2023-02-15T03:05:54;2.80;99.90
19152;DHT22;9708;53.114;9.388;2023-02-15T03:08:25;3.00;99.90
19152;DHT22;9708;53.114;9.388;2023-02-15T03:10:55;3.00;99.90
19152;DHT22;9708;53.114;9.388;2023-02-15T03:13:23;3.00;99.90
19152;DHT22;9708;53.114;9.388;2023-02-15T03:15:51;3.00;99.90
19152;DHT22;9708;53.114;9.388;2023-02-15T03:18:39;2.90;99.90
19152;DHT22;9708;53.114;9.388;2023-02-15T03:21:10;2.80;99.90
19152;DHT22;9708;53.114;9.388;2023-02-15T03:23:49;2.70;99.90
19152;DHT22;9708;53.114;9.388;2023-02-15T03:26:20;2.80;99.90
19152;DHT22;9708;53.114;9.388;2023-02-15T03:28:49;2.70;99.90
19152;DHT22;9708;53.114;9.388;2023-02-15T03:31:17;2.80;99.90
19152;DHT22;9708;53.114;9.388;2023-02-15T03:33:50;2.70;99.90
19152;DHT22;9708;53.114;9.388;2023-02-15T03:36:22;2.70;99.90
19152;DHT22;9708;53.114;9.388;2023-02-15T03:38:54;2.80;99.90
19152;DHT22;9708;53.114;9.388;2023-02-15T03:41:27;2.80;99.90
19152;DHT22;9708;53.114;9.388;2023-02-15T03:43:58;2.70;99.90
19152;DHT22;9708;53.114;9.388;2023-02-15T03:46:28;2.60;99.90
19152;DHT22;9708;53.114;9.388;2023-02-15T03:48:58;2.70;99.90
19152;DHT22;9708;53.114;9.388;2023-02-15T03:51:31;2.60;99.90
19152;DHT22;9708;53.114;9.388;2023-02-15T03:54:06;2.60;99.90
19152;DHT22;9708;53.114;9.388;2023-02-15T03:56:34;2.60;99.90
19152;DHT22;9708;53.114;9.388;2023-02-15T03:59:02;2.50;99.90
19152;DHT22;9708;53.114;9.388;2023-02-15T04:01:54;2.60;99.90
19152;DHT22;9708;53.114;9.388;2023-02-15T04:04:30;2.60;99.90
19152;DHT22;9708;53.114;9.388;2023-02-15T04:07:00;2.70;99.90
19152;DHT22;9708;53.114;9.388;2023-02-15T04:09:27;2.70;99.90
19152;DHT22;9708;53.114;9.388;2023-02-15T04:12:11;2.80;99.90
19152;DHT22;9708;53.114;9.388;2023-02-15T04:14:38;2.90;99.90
19152;DHT22;9708;53.114;9.388;2023-02-15T04:17:22;2.80;99.90
19152;DHT22;9708;53.114;9.388;2023-02-15T04:19:49;2.70;99.90
19152;DHT22;9708;53.114;9.388;2023-02-15T04:22:35;2.70;99.90
19152;DHT22;9708;53.114;9.388;2023-02-15T04:25:19;2.60;99.90
19152;DHT22;9708;53.114;9.388;2023-02-15T04:27:48;2.50;99.90
19152;DHT22;9708;53.114;9.388;2023-02-15T04:30:17;2.40;99.90
19152;DHT22;9708;53.114;9.388;2023-02-15T04:32:45;2.40;99.90
19152;DHT22;9708;53.114;9.388;2023-02-15T04:35:12;2.40;99.90
19152;DHT22;9708;53.114;9.388;2023-02-15T04:37:41;2.40;99.90
19152;DHT22;9708;53.114;9.388;2023-02-15T04:40:10;2.40;99.90
19152;DHT22;9708;53.114;9.388;2023-02-15T04:42:37;2.50;99.90
19152;DHT22;9708;53.114;9.388;2023-02-15T04:45:04;2.30;99.90
19152;DHT22;9708;53.114;9.388;2023-02-15T04:47:31;2.40;99.90
19152;DHT22;9708;53.114;9.388;2023-02-15T04:49:58;2.40;99.90
19152;DHT22;9708;53.114;9.388;2023-02-15T04:52:25;2.50;99.90
19152;DHT22;9708;53.114;9.388;2023-02-15T04:54:53;2.20;99.90
19152;DHT22;9708;53.114;9.388;2023-02-15T04:57:20;2.10;99.90
19152;DHT22;9708;53.114;9.388;2023-02-15T04:59:46;2.10;99.90
19152;DHT22;9708;53.114;9.388;2023-02-15T05:02:13;2.00;99.90
19152;DHT22;9708;53.114;9.388;2023-02-15T05:04:40;2.00;99.90
19152;DHT22;9708;53.114;9.388;2023-02-15T05:07:06;2.00;99.90
19152;DHT22;9708;53.114;9.388;2023-02-15T05:09:33;2.00;99.90
19152;DHT22;9708;53.114;9.388;2023-02-15T05:12:01;2.10;99.90
19152;DHT22;9708;53.114;9.388;2023-02-15T05:14:28;2.10;99.90
19152;DHT22;9708;53.114;9.388;2023-02-15T05:16:55;2.00;99.90
19152;DHT22;9708;53.114;9.388;2023-02-15T05:19:24;1.90;99.90
19152;DHT22;9708;53.114;9.388;2023-02-15T05:21:50;2.10;99.90
19152;DHT22;9708;53.114;9.388;2023-02-15T05:24:17;2.00;99.90
19152;DHT22;9708;53.114;9.388;2023-02-15T05:27:03;2.10;99.90
19152;DHT22;9708;53.114;9.388;2023-02-15T05:29:47;2.00;99.90
19152;DHT22;9708;53.114;9.388;2023-02-15T05:32:14;1.90;99.90
19152;DHT22;9708;53.114;9.388;2023-02-15T05:34:41;1.80;99.90
19152;DHT22;9708;53.114;9.388;2023-02-15T05:37:08;1.80;99.90
19152;DHT22;9708;53.114;9.388;2023-02-15T05:39:34;1.80;99.90
19152;DHT22;9708;53.114;9.388;2023-02-15T05:42:03;1.80;99.90
19152;DHT22;9708;53.114;9.388;2023-02-15T05:44:30;1.80;99.90
19152;DHT22;9708;53.114;9.388;2023-02-15T05:46:56;1.90;99.90
19152;DHT22;9708;53.114;9.388;2023-02-15T05:49:23;1.70;99.90
19152;DHT22;9708;53.114;9.388;2023-02-15T05:51:50;1.60;99.90
19152;DHT22;9708;53.114;9.388;2023-02-15T05:54:17;1.60;99.90
19152;DHT22;9708;53.114;9.388;2023-02-15T05:56:43;1.60;99.90
19152;DHT22;9708;53.114;9.388;2023-02-15T05:59:12;1.70;99.90
19152;DHT22;9708;53.114;9.388;2023-02-15T06:01:39;1.70;99.90
19152;DHT22;9708;53.114;9.388;2023-02-15T06:04:05;1.70;99.90
19152;DHT22;9708;53.114;9.388;2023-02-15T06:06:32;1.60;99.90
19152;DHT22;9708;53.114;9.388;2023-02-15T06:09:00;1.60;99.90
19152;DHT22;9708;53.114;9.388;2023-02-15T06:11:26;1.50;99.90
19152;DHT22;9708;53.114;9.388;2023-02-15T06:13:53;1.60;99.90
19152;DHT22;9708;53.114;9.388;2023-02-15T06:16:21;1.60;99.90
19152;DHT22;9708;53.114;9.388;2023-02-15T06:18:48;1.60;99.90
19152;DHT22;9708;53.114;9.388;2023-02-15T06:21:15;1.60;99.90
19152;DHT22;9708;53.114;9.388;2023-02-15T06:23:41;1.50;99.90
19152;DHT22;9708;53.114;9.388;2023-02-15T06:26:08;1.50;99.90
19152;DHT22;9708;53.114;9.388;2023-02-15T06:28:35;1.50;99.90
19152;DHT22;9708;53.114;9.388;2023-02-15T06:31:02;1.40;99.90
19152;DHT22;9708;53.114;9.388;2023-02-15T06:33:31;1.50;99.90
19152;DHT22;9708;53.114;9.388;2023-02-15T06:35:59;1.60;99.90
19152;DHT22;9708;53.114;9.388;2023-02-15T06:38:26;1.60;99.90
19152;DHT22;9708;53.114;9.388;2023-02-15T06:40:52;1.50;99.90
19152;DHT22;9708;53.114;9.388;2023-02-15T06:43:19;1.60;99.90
19152;DHT22;9708;53.114;9.388;2023-02-15T06:45:46;1.50;99.90
19152;DHT22;9708;53.114;9.388;2023-02-15T06:48:18;1.40;99.90
19152;DHT22;9708;53.114;9.388;2023-02-15T06:50:50;1.40;99.90
19152;DHT22;9708;53.114;9.388;2023-02-15T06:53:17;1.50;99.90
19152;DHT22;9708;53.114;9.388;2023-02-15T06:55:47;1.40;99.90
19152;DHT22;9708;53.114;9.388;2023-02-15T06:58:14;1.40;99.90
19152;DHT22;9708;53.114;9.388;2023-02-15T07:00:41;1.60;99.90
19152;DHT22;9708;53.114;9.388;2023-02-15T07:03:08;1.60;99.90
19152;DHT22;9708;53.114;9.388;2023-02-15T07:05:35;1.50;99.90
19152;DHT22;9708;53.114;9.388;2023-02-15T07:08:03;1.50;99.90
19152;DHT22;9708;53.114;9.388;2023-02-15T07:10:30;1.40;99.90
19152;DHT22;9708;53.114;9.388;2023-02-15T07:12:56;1.40;99.90
19152;DHT22;9708;53.114;9.388;2023-02-15T07:15:22;1.60;99.90
19152;DHT22;9708;53.114;9.388;2023-02-15T07:17:50;1.50;99.90
19152;DHT22;9708;53.114;9.388;2023-02-15T07:20:19;1.60;99.90
19152;DHT22;9708;53.114;9.388;2023-02-15T07:22:47;1.50;99.90
19152;DHT22;9708;53.114;9.388;2023-02-15T07:25:15;1.40;99.90
19152;DHT22;9708;53.114;9.388;2023-02-15T07:27:42;1.50;99.90
19152;DHT22;9708;53.114;9.388;2023-02-15T07:30:12;1.50;99.90
19152;DHT22;9708;53.114;9.388;2023-02-15T07:32:39;1.60;99.90
19152;DHT22;9708;53.114;9.388;2023-02-15T07:35:26;1.70;99.90
19152;DHT22;9708;53.114;9.388;2023-02-15T07:37:53;1.70;99.90
19152;DHT22;9708;53.114;9.388;2023-02-15T07:40:21;1.70;99.90
19152;DHT22;9708;53.114;9.388;2023-02-15T07:42:49;1.90;99.90
19152;DHT22;9708;53.114;9.388;2023-02-15T07:45:17;2.00;99.90
19152;DHT22;9708;53.114;9.388;2023-02-15T07:47:44;1.90;99.90
19152;DHT22;9708;53.114;9.388;2023-02-15T07:50:11;1.90;99.90
19152;DHT22;9708;53.114;9.388;2023-02-15T07:52:38;2.00;99.90
19152;DHT22;9708;53.114;9.388;2023-02-15T07:55:05;2.20;99.90
19152;DHT22;9708;53.114;9.388;2023-02-15T07:57:35;2.50;99.90
19152;DHT22;9708;53.114;9.388;2023-02-15T08:00:02;2.60;99.90
19152;DHT22;9708;53.114;9.388;2023-02-15T08:02:29;2.60;99.90
19152;DHT22;9708;53.114;9.388;2023-02-15T08:04:56;2.60;99.90
19152;DHT22;9708;53.114;9.388;2023-02-15T08:07:23;2.70;99.90
19152;DHT22;9708;53.114;9.388;2023-02-15T08:09:49;2.80;99.90
19152;DHT22;9708;53.114;9.388;2023-02-15T08:12:16;2.70;99.90
19152;DHT22;9708;53.114;9.388;2023-02-15T08:14:44;3.00;99.90
19152;DHT22;9708;53.114;9.388;2023-02-15T08:17:11;3.20;99.90
19152;DHT22;9708;53.114;9.388;2023-02-15T08:19:38;3.10;99.90
19152;DHT22;9708;53.114;9.388;2023-02-15T08:22:06;3.30;99.90
19152;DHT22;9708;53.114;9.388;2023-02-15T08:24:34;3.30;99.90
19152;DHT22;9708;53.114;9.388;2023-02-15T08:27:02;3.20;99.90
19152;DHT22;9708;53.114;9.388;2023-02-15T08:29:30;3.60;99.90
19152;DHT22;9708;53.114;9.388;2023-02-15T08:32:00;4.10;99.90
19152;DHT22;9708;53.114;9.388;2023-02-15T08:34:29;4.70;99.90
19152;DHT22;9708;53.114;9.388;2023-02-15T08:36:56;5.30;99.90
19152;DHT22;9708;53.114;9.388;2023-02-15T08:39:23;5.80;99.90
19152;DHT22;9708;53.114;9.388;2023-02-15T08:41:50;5.90;99.90
19152;DHT22;9708;53.114;9.388;2023-02-15T08:44:18;6.40;99.90
19152;DHT22;9708;53.114;9.388;2023-02-15T08:46:46;7.00;99.90
19152;DHT22;9708;53.114;9.388;2023-02-15T08:49:16;6.80;99.90
19152;DHT22;9708;53.114;9.388;2023-02-15T08:51:43;7.10;99.90
19152;DHT22;9708;53.114;9.388;2023-02-15T08:54:12;7.30;99.90
19152;DHT22;9708;53.114;9.388;2023-02-15T08:56:41;7.10;99.90
19152;DHT22;9708;53.114;9.388;2023-02-15T08:59:13;8.00;99.90
19152;DHT22;9708;53.114;9.388;2023-02-15T09:01:40;8.10;99.90
19152;DHT22;9708;53.114;9.388;2023-02-15T09:04:08;8.10;99.90
19152;DHT22;9708;53.114;9.388;2023-02-15T09:06:36;8.30;99.90
19152;DHT22;9708;53.114;9.388;2023-02-15T09:09:04;8.20;99.90
19152;DHT22;9708;53.114;9.388;2023-02-15T09:11:33;8.30;99.90
19152;DHT22;9708;53.114;9.388;2023-02-15T09:14:02;8.80;99.90
19152;DHT22;9708;53.114;9.388;2023-02-15T09:16:31;8.70;99.90
19152;DHT22;9708;53.114;9.388;2023-02-15T09:18:58;9.10;99.90
19152;DHT22;9708;53.114;9.388;2023-02-15T09:21:26;9.20;99.90
19152;DHT22;9708;53.114;9.388;2023-02-15T09:23:58;9.60;99.90
19152;DHT22;9708;53.114;9.388;2023-02-15T09:26:26;9.80;99.90
19152;DHT22;9708;53.114;9.388;2023-02-15T09:28:56;10.10;99.90
19152;DHT22;9708;53.114;9.388;2023-02-15T09:31:25;10.30;99.90
19152;DHT22;9708;53.114;9.388;2023-02-15T09:33:52;10.40;99.90
19152;DHT22;9708;53.114;9.388;2023-02-15T09:36:20;10.10;99.90
19152;DHT22;9708;53.114;9.388;2023-02-15T09:38:53;10.10;99.90
19152;DHT22;9708;53.114;9.388;2023-02-15T09:44:22;10.70;99.90
19152;DHT22;9708;53.114;9.388;2023-02-15T09:47:15;10.40;99.90
19152;DHT22;9708;53.114;9.388;2023-02-15T09:49:51;9.90;99.90
19152;DHT22;9708;53.114;9.388;2023-02-15T09:52:34;10.10;99.90
19152;DHT22;9708;53.114;9.388;2023-02-15T09:55:14;10.30;99.90
19152;DHT22;9708;53.114;9.388;2023-02-15T09:57:51;10.50;99.90
19152;DHT22;9708;53.114;9.388;2023-02-15T10:00:25;10.20;99.90
19152;DHT22;9708;53.114;9.388;2023-02-15T10:03:06;9.80;99.90
19152;DHT22;9708;53.114;9.388;2023-02-15T10:05:50;10.40;99.90
19152;DHT22;9708;53.114;9.388;2023-02-15T10:08:38;10.90;99.90
19152;DHT22;9708;53.114;9.388;2023-02-15T10:11:14;11.00;99.90
19152;DHT22;9708;53.114;9.388;2023-02-15T10:14:10;11.30;99.90
19152;DHT22;9708;53.114;9.388;2023-02-15T10:16:43;11.20;99.90
19152;DHT22;9708;53.114;9.388;2023-02-15T10:19:16;11.60;99.90
19152;DHT22;9708;53.114;9.388;2023-02-15T10:21:56;11.80;99.90
19152;DHT22;9708;53.114;9.388;2023-02-15T10:24:51;11.10;99.90
19152;DHT22;9708;53.114;9.388;2023-02-15T10:27:22;11.50;99.90
19152;DHT22;9708;53.114;9.388;2023-02-15T10:29:58;12.30;99.90
19152;DHT22;9708;53.114;9.388;2023-02-15T10:32:32;12.10;99.90
19152;DHT22;9708;53.114;9.388;2023-02-15T10:35:10;11.70;99.90
19152;DHT22;9708;53.114;9.388;2023-02-15T10:37:52;12.40;99.90
19152;DHT22;9708;53.114;9.388;2023-02-15T10:40:30;12.90;99.90
19152;DHT22;9708;53.114;9.388;2023-02-15T10:43:17;13.00;99.90
19152;DHT22;9708;53.114;9.388;2023-02-15T10:45:55;12.90;99.90
19152;DHT22;9708;53.114;9.388;2023-02-15T10:48:52;13.00;99.90
19152;DHT22;9708;53.114;9.388;2023-02-15T10:51:29;12.80;99.90
19152;DHT22;9708;53.114;9.388;2023-02-15T10:54:12;12.80;99.90
19152;DHT22;9708;53.114;9.388;2023-02-15T10:56:46;13.30;99.90
19152;DHT22;9708;53.114;9.388;2023-02-15T10:59:35;13.50;99.90
19152;DHT22;9708;53.114;9.388;2023-02-15T11:02:14;13.50;99.90
19152;DHT22;9708;53.114;9.388;2023-02-15T11:04:51;14.30;99.90
19152;DHT22;9708;53.114;9.388;2023-02-15T11:07:23;14.00;99.90
19152;DHT22;9708;53.114;9.388;2023-02-15T11:09:54;14.20;99.90
19152;DHT22;9708;53.114;9.388;2023-02-15T11:12:24;14.70;99.90
19152;DHT22;9708;53.114;9.388;2023-02-15T11:14:58;14.50;99.90
19152;DHT22;9708;53.114;9.388;2023-02-15T11:17:35;14.80;99.90
19152;DHT22;9708;53.114;9.388;2023-02-15T11:20:09;14.70;99.90
19152;DHT22;9708;53.114;9.388;2023-02-15T11:22:41;14.90;99.90
19152;DHT22;9708;53.114;9.388;2023-02-15T11:25:17;14.90;99.90
19152;DHT22;9708;53.114;9.388;2023-02-15T11:27:45;15.50;99.90
19152;DHT22;9708;53.114;9.388;2023-02-15T11:30:15;15.30;99.90
19152;DHT22;9708;53.114;9.388;2023-02-15T11:32:46;15.10;99.90
19152;DHT22;9708;53.114;9.388;2023-02-15T11:35:22;15.70;99.90
19152;DHT22;9708;53.114;9.388;2023-02-15T11:37:53;16.10;99.90
19152;DHT22;9708;53.114;9.388;2023-02-15T11:40:25;16.40;99.90
19152;DHT22;9708;53.114;9.388;2023-02-15T11:42:56;16.50;99.90
19152;DHT22;9708;53.114;9.388;2023-02-15T11:45:26;16.00;99.90
19152;DHT22;9708;53.114;9.388;2023-02-15T11:47:56;16.00;99.90
19152;DHT22;9708;53.114;9.388;2023-02-15T11:50:25;16.60;99.90
19152;DHT22;9708;53.114;9.388;2023-02-15T11:52:56;16.50;99.90
19152;DHT22;9708;53.114;9.388;2023-02-15T11:55:23;16.70;99.90
19152;DHT22;9708;53.114;9.388;2023-02-15T11:57:54;16.40;99.90
19152;DHT22;9708;53.114;9.388;2023-02-15T12:00:31;16.80;99.90
19152;DHT22;9708;53.114;9.388;2023-02-15T12:03:09;16.70;99.90
19152;DHT22;9708;53.114;9.388;2023-02-15T12:05:40;16.50;99.90
19152;DHT22;9708;53.114;9.388;2023-02-15T12:08:14;16.40;99.90
19152;DHT22;9708;53.114;9.388;2023-02-15T12:10:50;16.70;99.90
19152;DHT22;9708;53.114;9.388;2023-02-15T12:13:20;17.30;99.90
19152;DHT22;9708;53.114;9.388;2023-02-15T12:15:49;17.30;99.90
19152;DHT22;9708;53.114;9.388;2023-02-15T12:18:24;17.20;99.90
19152;DHT22;9708;53.114;9.388;2023-02-15T12:20:58;17.40;99.90
19152;DHT22;9708;53.114;9.388;2023-02-15T12:23:28;16.60;99.90
19152;DHT22;9708;53.114;9.388;2023-02-15T12:25:56;17.90;99.90
19152;DHT22;9708;53.114;9.388;2023-02-15T12:28:26;18.10;99.90
19152;DHT22;9708;53.114;9.388;2023-02-15T12:30:57;17.60;99.90
19152;DHT22;9708;53.114;9.388;2023-02-15T12:33:29;18.10;99.90
19152;DHT22;9708;53.114;9.388;2023-02-15T12:35:59;16.80;99.90
19152;DHT22;9708;53.114;9.388;2023-02-15T12:38:28;17.40;99.90
19152;DHT22;9708;53.114;9.388;2023-02-15T12:40:58;16.70;99.90
19152;DHT22;9708;53.114;9.388;2023-02-15T12:43:31;16.40;99.90
19152;DHT22;9708;53.114;9.388;2023-02-15T12:46:14;16.10;99.90
19152;DHT22;9708;53.114;9.388;2023-02-15T12:48:46;15.30;99.90
19152;DHT22;9708;53.114;9.388;2023-02-15T12:51:15;14.60;99.90
19152;DHT22;9708;53.114;9.388;2023-02-15T12:53:42;14.20;99.90
19152;DHT22;9708;53.114;9.388;2023-02-15T12:56:10;14.10;99.90
19152;DHT22;9708;53.114;9.388;2023-02-15T12:58:38;13.70;99.90
19152;DHT22;9708;53.114;9.388;2023-02-15T13:01:11;13.50;99.90
19152;DHT22;9708;53.114;9.388;2023-02-15T13:06:34;13.70;99.90
19152;DHT22;9708;53.114;9.388;2023-02-15T13:09:07;13.90;99.90
19152;DHT22;9708;53.114;9.388;2023-02-15T13:11:42;13.80;99.90
19152;DHT22;9708;53.114;9.388;2023-02-15T13:14:17;13.50;99.90
19152;DHT22;9708;53.114;9.388;2023-02-15T13:16:47;13.40;99.90
19152;DHT22;9708;53.114;9.388;2023-02-15T13:19:16;13.80;99.90
19152;DHT22;9708;53.114;9.388;2023-02-15T13:21:47;13.60;99.90
19152;DHT22;9708;53.114;9.388;2023-02-15T13:24:18;13.80;99.90
19152;DHT22;9708;53.114;9.388;2023-02-15T13:26:47;13.40;99.90
19152;DHT22;9708;53.114;9.388;2023-02-15T13:29:18;13.30;99.90
19152;DHT22;9708;53.114;9.388;2023-02-15T13:31:48;13.80;99.90
19152;DHT22;9708;53.114;9.388;2023-02-15T13:34:18;14.20;99.90
19152;DHT22;9708;53.114;9.388;2023-02-15T13:36:54;14.60;99.90
19152;DHT22;9708;53.114;9.388;2023-02-15T13:39:25;14.80;99.90
19152;DHT22;9708;53.114;9.388;2023-02-15T13:41:58;14.50;99.90
19152;DHT22;9708;53.114;9.388;2023-02-15T13:44:42;14.50;99.90
19152;DHT22;9708;53.114;9.388;2023-02-15T13:47:20;14.00;99.90
19152;DHT22;9708;53.114;9.388;2023-02-15T13:50:00;13.80;99.90
19152;DHT22;9708;53.114;9.388;2023-02-15T13:52:40;13.50;99.90
19152;DHT22;9708;53.114;9.388;2023-02-15T13:55:26;13.50;99.90
19152;DHT22;9708;53.114;9.388;2023-02-15T14:00:48;13.70;99.90
19152;DHT22;9708;53.114;9.388;2023-02-15T14:06:38;13.30;99.90
19152;DHT22;9708;53.114;9.388;2023-02-15T14:09:20;13.30;99.90
19152;DHT22;9708;53.114;9.388;2023-02-15T14:11:57;13.00;99.90
19152;DHT22;9708;53.114;9.388;2023-02-15T14:14:42;12.90;99.90
19152;DHT22;9708;53.114;9.388;2023-02-15T14:17:17;12.50;99.90
19152;DHT22;9708;53.114;9.388;2023-02-15T14:19:48;12.40;99.90
19152;DHT22;9708;53.114;9.388;2023-02-15T14:22:23;12.30;99.90
19152;DHT22;9708;53.114;9.388;2023-02-15T14:25:04;12.30;99.90
19152;DHT22;9708;53.114;9.388;2023-02-15T14:27:44;12.30;99.90
19152;DHT22;9708;53.114;9.388;2023-02-15T14:30:17;12.20;99.90
19152;DHT22;9708;53.114;9.388;2023-02-15T14:32:47;12.40;99.90
19152;DHT22;9708;53.114;9.388;2023-02-15T14:35:18;12.60;99.90
19152;DHT22;9708;53.114;9.388;2023-02-15T14:37:50;12.60;99.90
19152;DHT22;9708;53.114;9.388;2023-02-15T14:40:30;12.60;99.90
19152;DHT22;9708;53.114;9.388;2023-02-15T14:43:25;12.60;99.90
19152;DHT22;9708;53.114;9.388;2023-02-15T14:46:03;12.50;99.90
19152;DHT22;9708;53.114;9.388;2023-02-15T14:48:37;12.40;99.90
19152;DHT22;9708;53.114;9.388;2023-02-15T14:51:05;12.30;99.90
19152;DHT22;9708;53.114;9.388;2023-02-15T14:53:36;12.30;99.90
19152;DHT22;9708;53.114;9.388;2023-02-15T14:56:20;12.40;99.90
19152;DHT22;9708;53.114;9.388;2023-02-15T14:59:12;12.30;99.90
19152;DHT22;9708;53.114;9.388;2023-02-15T15:01:41;12.10;99.90
19152;DHT22;9708;53.114;9.388;2023-02-15T15:04:10;11.90;99.90
19152;DHT22;9708;53.114;9.388;2023-02-15T15:06:40;11.70;99.90
19152;DHT22;9708;53.114;9.388;2023-02-15T15:09:18;11.60;99.90
19152;DHT22;9708;53.114;9.388;2023-02-15T15:11:48;11.40;99.90
19152;DHT22;9708;53.114;9.388;2023-02-15T15:14:38;11.40;99.90
19152;DHT22;9708;53.114;9.388;2023-02-15T15:17:08;11.30;99.90
19152;DHT22;9708;53.114;9.388;2023-02-15T15:22:27;11.10;99.90
19152;DHT22;9708;53.114;9.388;2023-02-15T15:24:55;11.00;99.90
19152;DHT22;9708;53.114;9.388;2023-02-15T15:27:45;10.90;99.90
19152;DHT22;9708;53.114;9.388;2023-02-15T15:33:59;10.70;99.90
19152;DHT22;9708;53.114;9.388;2023-02-15T15:36:54;10.70;99.90
19152;DHT22;9708;53.114;9.388;2023-02-15T15:42:32;10.50;99.90
19152;DHT22;9708;53.114;9.388;2023-02-15T15:45:43;10.50;99.90
19152;DHT22;9708;53.114;9.388;2023-02-15T15:48:26;10.40;99.90
19152;DHT22;9708;53.114;9.388;2023-02-15T15:50:57;10.30;99.90
19152;DHT22;9708;53.114;9.388;2023-02-15T15:53:27;10.20;99.90
19152;DHT22;9708;53.114;9.388;2023-02-15T15:55:59;10.10;99.90
19152;DHT22;9708;53.114;9.388;2023-02-15T15:58:26;10.10;99.90
19152;DHT22;9708;53.114;9.388;2023-02-15T16:00:59;10.10;99.90
19152;DHT22;9708;53.114;9.388;2023-02-15T16:03:28;10.10;99.90
19152;DHT22;9708;53.114;9.388;2023-02-15T16:05:55;10.00;99.90
19152;DHT22;9708;53.114;9.388;2023-02-15T16:08:28;9.90;99.90
19152;DHT22;9708;53.114;9.388;2023-02-15T16:10:55;9.90;99.90
19152;DHT22;9708;53.114;9.388;2023-02-15T16:13:22;10.00;99.90
19152;DHT22;9708;53.114;9.388;2023-02-15T16:15:53;9.90;99.90
19152;DHT22;9708;53.114;9.388;2023-02-15T16:18:23;9.80;99.90
19152;DHT22;9708;53.114;9.388;2023-02-15T16:20:52;9.70;99.90
19152;DHT22;9708;53.114;9.388;2023-02-15T16:26:32;9.40;99.90
19152;DHT22;9708;53.114;9.388;2023-02-15T16:29:14;9.50;99.90
19152;DHT22;9708;53.114;9.388;2023-02-15T16:31:41;9.40;99.90
19152;DHT22;9708;53.114;9.388;2023-02-15T16:34:16;9.30;99.90
19152;DHT22;9708;53.114;9.388;2023-02-15T16:39:56;9.20;99.90
19152;DHT22;9708;53.114;9.388;2023-02-15T16:42:23;9.00;99.90
19152;DHT22;9708;53.114;9.388;2023-02-15T16:44:54;8.80;99.90
19152;DHT22;9708;53.114;9.388;2023-02-15T16:47:24;8.60;99.90
19152;DHT22;9708;53.114;9.388;2023-02-15T16:49:56;8.40;99.90
19152;DHT22;9708;53.114;9.388;2023-02-15T16:52:25;8.20;99.90
19152;DHT22;9708;53.114;9.388;2023-02-15T16:54:55;8.10;99.90
19152;DHT22;9708;53.114;9.388;2023-02-15T16:57:24;8.20;99.90